GLD1794 SAWC-SCCI
Flight info
| Callsign | GLD1794 |
|---|---|
| Flight time | 0h 41m |
| Altitude | 23000 |
| Route | MUNER2G MUNER MUNER2E |
| Aircraft | A320/M-SDE3FGHIRWY/LB1 |
Departure
| Time | 2026-05-09 21:09 |
|---|---|
| Airport | El Calafate - Commander Armando Tola International Airport (SAWC) |
Arrival
| Time | 2026-05-09 21:50 |
|---|---|
| Airport | President Carlos Ibáñez International Airport (SCCI) |
| Time | Latitude | Longitude | Altitude | Speed | Heading |
|---|---|---|---|---|---|
| 2026-05-09 20:49 | -50.28353 | -72.05469 | 650 ft | 0 kts | 152° |
| 2026-05-09 21:02 | -50.28345 | -72.05476 | 653 ft | 2 kts | 152° |
| 2026-05-09 21:02 | -50.28331 | -72.05488 | 653 ft | 2 kts | 151° |
| 2026-05-09 21:03 | -50.28317 | -72.05500 | 650 ft | 2 kts | 151° |
| 2026-05-09 21:03 | -50.28302 | -72.05512 | 652 ft | 2 kts | 151° |
| 2026-05-09 21:03 | -50.28287 | -72.05520 | 650 ft | 2 kts | 190° |
| 2026-05-09 21:03 | -50.28273 | -72.05510 | 652 ft | 2 kts | 232° |
| 2026-05-09 21:04 | -50.28264 | -72.05489 | 652 ft | 2 kts | 263° |
| 2026-05-09 21:04 | -50.28264 | -72.05488 | 652 ft | 0 kts | 263° |
| 2026-05-09 21:05 | -50.28264 | -72.05489 | 652 ft | 1 kts | 263° |
| 2026-05-09 21:05 | -50.28267 | -72.05554 | 651 ft | 9 kts | 265° |
| 2026-05-09 21:05 | -50.28274 | -72.05653 | 651 ft | 10 kts | 264° |
| 2026-05-09 21:06 | -50.28280 | -72.05763 | 651 ft | 11 kts | 265° |
| 2026-05-09 21:06 | -50.28287 | -72.05883 | 653 ft | 12 kts | 263° |
| 2026-05-09 21:06 | -50.28295 | -72.06012 | 653 ft | 12 kts | 265° |
| 2026-05-09 21:06 | -50.28303 | -72.06151 | 653 ft | 13 kts | 264° |
| 2026-05-09 21:07 | -50.28313 | -72.06300 | 655 ft | 14 kts | 265° |
| 2026-05-09 21:07 | -50.28256 | -72.06407 | 655 ft | 15 kts | 347° |
| 2026-05-09 21:07 | -50.28170 | -72.06332 | 654 ft | 15 kts | 52° |
| 2026-05-09 21:07 | -50.28101 | -72.06228 | 653 ft | 13 kts | 27° |
| 2026-05-09 21:08 | -50.28069 | -72.06142 | 652 ft | 0 kts | 86° |
| 2026-05-09 21:08 | -50.28068 | -72.06115 | 652 ft | 12 kts | 86° |
| 2026-05-09 21:08 | -50.28035 | -72.05573 | 649 ft | 88 kts | 85° |
| 2026-05-09 21:08 | -50.27958 | -72.04289 | 645 ft | 147 kts | 84° |
| 2026-05-09 21:09 | -50.27861 | -72.02543 | 988 ft | 162 kts | 84° |
| 2026-05-09 21:09 | -50.27770 | -72.00755 | 1589 ft | 165 kts | 83° |
| 2026-05-09 21:09 | -50.27662 | -71.98984 | 2250 ft | 166 kts | 84° |
| 2026-05-09 21:09 | -50.27545 | -71.97176 | 2814 ft | 163 kts | 85° |
| 2026-05-09 21:10 | -50.27416 | -71.95321 | 2780 ft | 191 kts | 85° |
| 2026-05-09 21:10 | -50.27279 | -71.93071 | 2798 ft | 224 kts | 86° |
| 2026-05-09 21:10 | -50.27130 | -71.90504 | 2985 ft | 253 kts | 86° |
| 2026-05-09 21:10 | -50.26959 | -71.87642 | 3361 ft | 276 kts | 85° |
| 2026-05-09 21:11 | -50.26773 | -71.84577 | 4020 ft | 288 kts | 85° |
| 2026-05-09 21:12 | -50.29040 | -71.73323 | 7157 ft | 282 kts | 153° |
| 2026-05-09 21:12 | -50.30651 | -71.71579 | 8032 ft | 282 kts | 153° |
| 2026-05-09 21:12 | -50.32261 | -71.69831 | 8930 ft | 282 kts | 154° |
| 2026-05-09 21:12 | -50.33879 | -71.68073 | 9816 ft | 283 kts | 154° |
| 2026-05-09 21:13 | -50.35507 | -71.66299 | 10486 ft | 291 kts | 154° |
| 2026-05-09 21:13 | -50.37239 | -71.64430 | 10669 ft | 314 kts | 154° |
| 2026-05-09 21:13 | -50.39103 | -71.62419 | 10915 ft | 333 kts | 153° |
| 2026-05-09 21:13 | -50.41120 | -71.60646 | 11511 ft | 331 kts | 165° |
| 2026-05-09 21:14 | -50.43293 | -71.59566 | 12210 ft | 325 kts | 175° |
| 2026-05-09 21:14 | -50.45514 | -71.58871 | 12964 ft | 326 kts | 176° |
| 2026-05-09 21:14 | -50.47741 | -71.58179 | 13722 ft | 327 kts | 177° |
| 2026-05-09 21:14 | -50.49980 | -71.57484 | 14410 ft | 329 kts | 177° |
| 2026-05-09 21:15 | -50.52228 | -71.56787 | 15068 ft | 330 kts | 178° |
| 2026-05-09 21:15 | -50.54486 | -71.56085 | 15712 ft | 332 kts | 178° |
| 2026-05-09 21:15 | -50.56759 | -71.55377 | 16359 ft | 333 kts | 178° |
| 2026-05-09 21:15 | -50.59044 | -71.54665 | 17004 ft | 336 kts | 178° |
| 2026-05-09 21:16 | -50.61319 | -71.53954 | 17601 ft | 338 kts | 179° |
| 2026-05-09 21:16 | -50.63668 | -71.53219 | 18242 ft | 340 kts | 179° |
| 2026-05-09 21:16 | -50.65963 | -71.52634 | 18783 ft | 336 kts | 185° |
| 2026-05-09 21:16 | -50.68296 | -71.52363 | 19320 ft | 337 kts | 186° |
| 2026-05-09 21:17 | -50.70640 | -71.52087 | 19853 ft | 339 kts | 186° |
| 2026-05-09 21:17 | -50.73003 | -71.51805 | 20403 ft | 342 kts | 186° |
| 2026-05-09 21:17 | -50.75384 | -71.51519 | 20927 ft | 344 kts | 186° |
| 2026-05-09 21:17 | -50.77778 | -71.51229 | 21433 ft | 347 kts | 186° |
| 2026-05-09 21:18 | -50.80191 | -71.50935 | 21921 ft | 349 kts | 187° |
| 2026-05-09 21:18 | -50.82623 | -71.50641 | 22472 ft | 351 kts | 187° |
| 2026-05-09 21:18 | -50.85062 | -71.50345 | 22972 ft | 352 kts | 187° |
| 2026-05-09 21:18 | -50.87516 | -71.50049 | 23124 ft | 355 kts | 187° |
| 2026-05-09 21:19 | -50.94939 | -71.49153 | 23144 ft | 357 kts | 187° |
| 2026-05-09 21:19 | -50.97426 | -71.48618 | 23144 ft | 369 kts | 179° |
| 2026-05-09 21:20 | -50.99924 | -71.47561 | 23145 ft | 372 kts | 178° |
| 2026-05-09 21:20 | -51.02422 | -71.46479 | 23144 ft | 372 kts | 178° |
| 2026-05-09 21:20 | -51.04925 | -71.45393 | 23192 ft | 372 kts | 176° |
| 2026-05-09 21:20 | -51.07422 | -71.44313 | 23140 ft | 372 kts | 176° |
| 2026-05-09 21:21 | -51.09924 | -71.43230 | 23139 ft | 373 kts | 176° |
| 2026-05-09 21:21 | -51.12429 | -71.42147 | 23140 ft | 373 kts | 176° |
| 2026-05-09 21:21 | -51.14902 | -71.41079 | 23140 ft | 373 kts | 176° |
| 2026-05-09 21:21 | -51.17408 | -71.39994 | 23140 ft | 373 kts | 176° |
| 2026-05-09 21:22 | -51.19910 | -71.38909 | 23143 ft | 373 kts | 176° |
| 2026-05-09 21:22 | -51.22411 | -71.37822 | 23143 ft | 373 kts | 176° |
| 2026-05-09 21:22 | -51.24913 | -71.36728 | 23142 ft | 373 kts | 176° |
| 2026-05-09 21:22 | -51.27416 | -71.35631 | 23183 ft | 373 kts | 175° |
| 2026-05-09 21:23 | -51.29927 | -71.34531 | 23148 ft | 374 kts | 175° |
| 2026-05-09 21:23 | -51.32445 | -71.33432 | 23130 ft | 375 kts | 175° |
| 2026-05-09 21:23 | -51.34964 | -71.32334 | 23123 ft | 376 kts | 175° |
| 2026-05-09 21:23 | -51.37489 | -71.31235 | 23120 ft | 376 kts | 175° |
| 2026-05-09 21:24 | -51.40019 | -71.30133 | 23120 ft | 377 kts | 175° |
| 2026-05-09 21:24 | -51.42550 | -71.29025 | 23120 ft | 377 kts | 175° |
| 2026-05-09 21:24 | -51.45087 | -71.27906 | 23122 ft | 378 kts | 175° |
| 2026-05-09 21:24 | -51.47621 | -71.26787 | 23120 ft | 378 kts | 175° |
| 2026-05-09 21:25 | -51.50163 | -71.25849 | 23176 ft | 369 kts | 182° |
| 2026-05-09 21:25 | -51.52696 | -71.25655 | 23144 ft | 360 kts | 191° |
| 2026-05-09 21:25 | -51.55193 | -71.25940 | 23122 ft | 360 kts | 192° |
| 2026-05-09 21:25 | -51.57696 | -71.26230 | 23114 ft | 361 kts | 192° |
| 2026-05-09 21:26 | -51.60204 | -71.26519 | 23110 ft | 362 kts | 192° |
| 2026-05-09 21:26 | -51.62693 | -71.26806 | 23110 ft | 363 kts | 192° |
| 2026-05-09 21:26 | -51.65246 | -71.27094 | 23105 ft | 363 kts | 192° |
| 2026-05-09 21:26 | -51.67769 | -71.27374 | 23107 ft | 364 kts | 192° |
| 2026-05-09 21:27 | -51.70265 | -71.27649 | 23109 ft | 364 kts | 192° |
| 2026-05-09 21:27 | -51.72795 | -71.27926 | 23100 ft | 364 kts | 192° |
| 2026-05-09 21:27 | -51.75319 | -71.28204 | 23177 ft | 363 kts | 192° |
| 2026-05-09 21:27 | -51.77841 | -71.28485 | 23168 ft | 363 kts | 192° |
| 2026-05-09 21:28 | -51.80362 | -71.28770 | 23164 ft | 363 kts | 192° |
| 2026-05-09 21:28 | -51.82879 | -71.29054 | 23157 ft | 363 kts | 192° |
| 2026-05-09 21:28 | -51.85400 | -71.29339 | 23146 ft | 363 kts | 192° |
| 2026-05-09 21:28 | -51.87919 | -71.29624 | 23141 ft | 363 kts | 192° |
| 2026-05-09 21:29 | -51.89591 | -71.29815 | 23132 ft | 363 kts | 192° |
| 2026-05-09 21:29 | -51.92109 | -71.30103 | 23130 ft | 363 kts | 192° |
| 2026-05-09 21:29 | -51.94629 | -71.30391 | 23128 ft | 363 kts | 192° |
| 2026-05-09 21:29 | -51.97147 | -71.30676 | 23126 ft | 363 kts | 192° |
| 2026-05-09 21:30 | -51.99686 | -71.30750 | 23123 ft | 370 kts | 184° |
| 2026-05-09 21:30 | -52.02257 | -71.30016 | 23090 ft | 380 kts | 174° |
| 2026-05-09 21:30 | -52.04791 | -71.28887 | 22573 ft | 375 kts | 174° |
| 2026-05-09 21:30 | -52.07286 | -71.27762 | 22113 ft | 369 kts | 174° |
| 2026-05-09 21:31 | -52.09735 | -71.26656 | 21675 ft | 363 kts | 174° |
| 2026-05-09 21:31 | -52.12157 | -71.25565 | 21249 ft | 358 kts | 174° |
| 2026-05-09 21:31 | -52.14538 | -71.24492 | 20824 ft | 353 kts | 174° |
| 2026-05-09 21:31 | -52.16889 | -71.23440 | 20417 ft | 348 kts | 174° |
| 2026-05-09 21:32 | -52.19214 | -71.22408 | 20006 ft | 344 kts | 174° |
| 2026-05-09 21:32 | -52.21506 | -71.21389 | 19601 ft | 340 kts | 173° |
| 2026-05-09 21:32 | -52.23773 | -71.20377 | 19206 ft | 336 kts | 173° |
| 2026-05-09 21:32 | -52.26023 | -71.19372 | 18776 ft | 334 kts | 173° |
| 2026-05-09 21:33 | -52.28257 | -71.18369 | 18352 ft | 332 kts | 172° |
| 2026-05-09 21:33 | -52.30477 | -71.17368 | 17893 ft | 329 kts | 172° |
| 2026-05-09 21:33 | -52.32679 | -71.16375 | 17474 ft | 326 kts | 172° |
| 2026-05-09 21:33 | -52.34858 | -71.15392 | 17045 ft | 324 kts | 172° |
| 2026-05-09 21:34 | -52.37033 | -71.14408 | 16631 ft | 323 kts | 172° |
| 2026-05-09 21:34 | -52.39190 | -71.13433 | 16204 ft | 321 kts | 172° |
| 2026-05-09 21:34 | -52.41336 | -71.12462 | 15781 ft | 319 kts | 172° |
| 2026-05-09 21:34 | -52.43473 | -71.11491 | 15353 ft | 318 kts | 172° |
| 2026-05-09 21:35 | -52.45602 | -71.10524 | 14937 ft | 317 kts | 172° |
| 2026-05-09 21:35 | -52.47727 | -71.09560 | 14530 ft | 316 kts | 172° |
| 2026-05-09 21:35 | -52.49847 | -71.08600 | 14092 ft | 316 kts | 172° |
| 2026-05-09 21:35 | -52.51968 | -71.07638 | 13634 ft | 315 kts | 172° |
| 2026-05-09 21:36 | -52.54078 | -71.06681 | 13187 ft | 314 kts | 172° |
| 2026-05-09 21:36 | -52.56172 | -71.05731 | 12758 ft | 311 kts | 172° |
| 2026-05-09 21:36 | -52.58224 | -71.04799 | 12325 ft | 309 kts | 172° |
| 2026-05-09 21:36 | -52.60297 | -71.03853 | 11893 ft | 308 kts | 172° |
| 2026-05-09 21:37 | -52.62355 | -71.02909 | 11445 ft | 306 kts | 172° |
| 2026-05-09 21:37 | -52.64401 | -71.01970 | 11008 ft | 304 kts | 172° |
| 2026-05-09 21:37 | -52.66430 | -71.01038 | 10667 ft | 298 kts | 172° |
| 2026-05-09 21:37 | -52.68349 | -71.00142 | 10536 ft | 275 kts | 172° |
| 2026-05-09 21:38 | -52.70121 | -70.99309 | 10431 ft | 256 kts | 173° |
| 2026-05-09 21:38 | -52.71815 | -70.98526 | 10343 ft | 251 kts | 173° |
| 2026-05-09 21:38 | -52.73499 | -70.97762 | 10237 ft | 250 kts | 173° |
| 2026-05-09 21:38 | -52.75178 | -70.97006 | 10126 ft | 251 kts | 173° |
| 2026-05-09 21:39 | -52.76853 | -70.96249 | 10007 ft | 249 kts | 173° |
| 2026-05-09 21:39 | -52.78549 | -70.95480 | 9462 ft | 254 kts | 172° |
| 2026-05-09 21:39 | -52.80225 | -70.94709 | 8984 ft | 247 kts | 172° |
| 2026-05-09 21:39 | -52.81869 | -70.93947 | 8522 ft | 244 kts | 172° |
| 2026-05-09 21:40 | -52.83451 | -70.92890 | 8074 ft | 247 kts | 159° |
| 2026-05-09 21:40 | -52.84843 | -70.91211 | 7572 ft | 251 kts | 144° |
| 2026-05-09 21:40 | -52.85991 | -70.88947 | 6931 ft | 262 kts | 132° |
| 2026-05-09 21:40 | -52.87032 | -70.86462 | 6289 ft | 263 kts | 132° |
| 2026-05-09 21:41 | -52.88074 | -70.83981 | 5628 ft | 262 kts | 132° |
| 2026-05-09 21:41 | -52.89113 | -70.81507 | 5027 ft | 261 kts | 132° |
| 2026-05-09 21:41 | -52.90146 | -70.79045 | 4377 ft | 260 kts | 132° |
| 2026-05-09 21:41 | -52.91177 | -70.76590 | 3748 ft | 258 kts | 132° |
| 2026-05-09 21:42 | -52.92191 | -70.74179 | 3444 ft | 248 kts | 132° |
| 2026-05-09 21:42 | -52.93146 | -70.71896 | 3398 ft | 234 kts | 133° |
| 2026-05-09 21:42 | -52.94139 | -70.69915 | 3310 ft | 214 kts | 151° |
| 2026-05-09 21:42 | -52.95379 | -70.68812 | 3205 ft | 199 kts | 173° |
| 2026-05-09 21:43 | -52.96710 | -70.68576 | 3116 ft | 186 kts | 193° |
| 2026-05-09 21:43 | -52.97879 | -70.69076 | 3051 ft | 162 kts | 210° |
| 2026-05-09 21:43 | -52.98790 | -70.70063 | 3049 ft | 148 kts | 225° |
| 2026-05-09 21:43 | -52.99425 | -70.71320 | 2779 ft | 139 kts | 238° |
| 2026-05-09 21:44 | -52.99806 | -70.72741 | 2577 ft | 134 kts | 250° |
| 2026-05-09 21:44 | -52.99936 | -70.74254 | 2485 ft | 134 kts | 269° |
| 2026-05-09 21:44 | -52.99549 | -70.75700 | 2635 ft | 144 kts | 298° |
| 2026-05-09 21:44 | -52.98708 | -70.76682 | 2456 ft | 155 kts | 328° |
| 2026-05-09 21:45 | -52.97611 | -70.76899 | 2250 ft | 164 kts | 354° |
| 2026-05-09 21:45 | -52.96470 | -70.76649 | 2089 ft | 166 kts | 0° |
| 2026-05-09 21:45 | -52.95347 | -70.76150 | 1964 ft | 171 kts | 20° |
| 2026-05-09 21:45 | -52.94413 | -70.74889 | 1903 ft | 177 kts | 52° |
| 2026-05-09 21:46 | -52.93925 | -70.73044 | 1815 ft | 175 kts | 85° |
| 2026-05-09 21:46 | -52.94014 | -70.71118 | 1666 ft | 163 kts | 120° |
| 2026-05-09 21:46 | -52.94682 | -70.69855 | 1418 ft | 136 kts | 171° |
| 2026-05-09 21:46 | -52.95560 | -70.69538 | 1366 ft | 130 kts | 183° |
| 2026-05-09 21:47 | -52.96460 | -70.69360 | 1403 ft | 130 kts | 185° |
| 2026-05-09 21:47 | -52.97361 | -70.69235 | 1444 ft | 129 kts | 188° |
| 2026-05-09 21:47 | -52.98185 | -70.69573 | 1451 ft | 121 kts | 218° |
| 2026-05-09 21:47 | -52.98764 | -70.70601 | 1572 ft | 125 kts | 235° |
| 2026-05-09 21:48 | -52.99285 | -70.71787 | 1735 ft | 129 kts | 237° |
| 2026-05-09 21:48 | -52.99660 | -70.73143 | 1577 ft | 130 kts | 250° |
| 2026-05-09 21:48 | -52.99866 | -70.74592 | 1329 ft | 128 kts | 256° |
| 2026-05-09 21:48 | -52.99961 | -70.76057 | 1105 ft | 128 kts | 265° |
| 2026-05-09 21:49 | -52.99986 | -70.77538 | 828 ft | 129 kts | 265° |
| 2026-05-09 21:49 | -53.00002 | -70.79007 | 602 ft | 126 kts | 267° |
| 2026-05-09 21:49 | -53.00021 | -70.80459 | 455 ft | 126 kts | 266° |
| 2026-05-09 21:49 | -53.00038 | -70.81905 | 275 ft | 125 kts | 266° |
| 2026-05-09 21:50 | -53.00062 | -70.83346 | 145 ft | 125 kts | 267° |
| 2026-05-09 21:50 | -53.00078 | -70.84672 | 119 ft | 91 kts | 269° |
| 2026-05-09 21:50 | -53.00076 | -70.85494 | 113 ft | 16 kts | 279° |
| 2026-05-09 21:51 | -53.00086 | -70.85471 | 115 ft | 6 kts | 86° |
| 2026-05-09 21:51 | -53.00087 | -70.85314 | 116 ft | 18 kts | 88° |
| 2026-05-09 21:51 | -53.00085 | -70.85111 | 116 ft | 17 kts | 89° |
| 2026-05-09 21:51 | -53.00088 | -70.84957 | 118 ft | 11 kts | 107° |
| 2026-05-09 21:52 | -53.00134 | -70.84885 | 118 ft | 9 kts | 148° |
| 2026-05-09 21:52 | -53.00189 | -70.84828 | 114 ft | 11 kts | 147° |
| 2026-05-09 21:52 | -53.00284 | -70.84728 | 115 ft | 17 kts | 148° |
| 2026-05-09 21:52 | -53.00373 | -70.84620 | 115 ft | 15 kts | 122° |
| 2026-05-09 21:53 | -53.00392 | -70.84467 | 116 ft | 12 kts | 131° |
| 2026-05-09 21:53 | -53.00457 | -70.84451 | 114 ft | 1 kts | 178° |